sensor_id;sensor_type;location;lat;lon;timestamp;pressure;altitude;pressure_sealevel;temperature;humidity
25510;BME280;13413;52.336;21.200;2023-02-22T00:00:46;100275.81;;;8.10;59.69
25510;BME280;13413;52.336;21.200;2023-02-22T00:03:40;100278.40;;;8.10;59.62
25510;BME280;13413;52.336;21.200;2023-02-22T00:06:34;100282.08;;;8.07;59.74
25510;BME280;13413;52.336;21.200;2023-02-22T00:09:28;100283.16;;;8.05;59.65
25510;BME280;13413;52.336;21.200;2023-02-22T00:12:22;100286.23;;;8.04;59.57
25510;BME280;13413;52.336;21.200;2023-02-22T00:15:18;100292.42;;;7.99;59.56
25510;BME280;13413;52.336;21.200;2023-02-22T00:18:14;100291.35;;;7.94;59.64
25510;BME280;13413;52.336;21.200;2023-02-22T00:21:08;100298.43;;;7.90;59.55
25510;BME280;13413;52.336;21.200;2023-02-22T00:24:04;100300.22;;;7.90;59.65
25510;BME280;13413;52.336;21.200;2023-02-22T00:26:57;100303.52;;;7.90;59.55
25510;BME280;13413;52.336;21.200;2023-02-22T00:29:52;100303.75;;;7.90;59.48
25510;BME280;13413;52.336;21.200;2023-02-22T00:32:47;100307.01;;;7.87;59.47
25510;BME280;13413;52.336;21.200;2023-02-22T00:35:41;100306.30;;;7.84;59.59
25510;BME280;13413;52.336;21.200;2023-02-22T00:38:35;100308.82;;;7.84;59.47
25510;BME280;13413;52.336;21.200;2023-02-22T00:45:07;100315.99;;;7.82;59.47
25510;BME280;13413;52.336;21.200;2023-02-22T00:48:03;100316.85;;;7.79;59.45
25510;BME280;13413;52.336;21.200;2023-02-22T00:50:58;100320.58;;;7.74;59.32
25510;BME280;13413;52.336;21.200;2023-02-22T00:53:52;100323.59;;;7.69;59.56
25510;BME280;13413;52.336;21.200;2023-02-22T00:56:46;100326.11;;;7.65;59.58
25510;BME280;13413;52.336;21.200;2023-02-22T00:59:40;100330.17;;;7.63;59.59
25510;BME280;13413;52.336;21.200;2023-02-22T01:02:34;100329.05;;;7.58;59.69
25510;BME280;13413;52.336;21.200;2023-02-22T01:05:30;100337.16;;;7.58;59.71
25510;BME280;13413;52.336;21.200;2023-02-22T01:08:24;100336.14;;;7.51;59.81
25510;BME280;13413;52.336;21.200;2023-02-22T01:11:19;100337.00;;;7.46;59.79
25510;BME280;13413;52.336;21.200;2023-02-22T01:14:13;100345.36;;;7.45;59.92
25510;BME280;13413;52.336;21.200;2023-02-22T01:17:07;100342.52;;;7.49;59.95
25510;BME280;13413;52.336;21.200;2023-02-22T01:20:00;100348.23;;;7.50;60.03
25510;BME280;13413;52.336;21.200;2023-02-22T01:22:56;100353.05;;;7.46;59.89
25510;BME280;13413;52.336;21.200;2023-02-22T01:25:50;100353.36;;;7.41;60.02
25510;BME280;13413;52.336;21.200;2023-02-22T01:28:44;100356.57;;;7.39;60.04
25510;BME280;13413;52.336;21.200;2023-02-22T01:31:38;100363.77;;;7.28;60.08
25510;BME280;13413;52.336;21.200;2023-02-22T01:34:32;100370.86;;;7.21;60.12
25510;BME280;13413;52.336;21.200;2023-02-22T01:37:26;100379.09;;;7.16;60.23
25510;BME280;13413;52.336;21.200;2023-02-22T01:40:22;100375.34;;;7.17;60.16
25510;BME280;13413;52.336;21.200;2023-02-22T01:43:20;100377.23;;;7.17;60.18
25510;BME280;13413;52.336;21.200;2023-02-22T01:46:23;100380.23;;;7.10;60.31
25510;BME280;13413;52.336;21.200;2023-02-22T01:49:18;100378.98;;;7.07;60.37
25510;BME280;13413;52.336;21.200;2023-02-22T01:52:16;100381.27;;;7.04;60.48
25510;BME280;13413;52.336;21.200;2023-02-22T01:55:12;100382.51;;;7.05;60.55
25510;BME280;13413;52.336;21.200;2023-02-22T01:58:07;100379.42;;;7.04;60.58
25510;BME280;13413;52.336;21.200;2023-02-22T02:01:01;100386.63;;;7.06;60.69
25510;BME280;13413;52.336;21.200;2023-02-22T02:03:59;100388.58;;;7.07;60.69
25510;BME280;13413;52.336;21.200;2023-02-22T02:06:58;100387.91;;;7.11;60.77
25510;BME280;13413;52.336;21.200;2023-02-22T02:09:58;100390.12;;;7.13;60.73
25510;BME280;13413;52.336;21.200;2023-02-22T02:12:53;100394.40;;;7.15;60.70
25510;BME280;13413;52.336;21.200;2023-02-22T02:15:49;100398.25;;;7.16;60.75
25510;BME280;13413;52.336;21.200;2023-02-22T02:18:46;100398.80;;;7.21;60.74
25510;BME280;13413;52.336;21.200;2023-02-22T02:22:12;100400.39;;;7.23;60.68
25510;BME280;13413;52.336;21.200;2023-02-22T02:25:27;100406.06;;;7.26;60.71
25510;BME280;13413;52.336;21.200;2023-02-22T02:28:48;100409.58;;;7.26;60.67
25510;BME280;13413;52.336;21.200;2023-02-22T02:35:23;100416.38;;;7.26;60.70
25510;BME280;13413;52.336;21.200;2023-02-22T02:38:31;100417.17;;;7.27;60.71
25510;BME280;13413;52.336;21.200;2023-02-22T02:41:29;100421.52;;;7.35;60.71
25510;BME280;13413;52.336;21.200;2023-02-22T02:44:30;100417.58;;;7.37;60.67
25510;BME280;13413;52.336;21.200;2023-02-22T02:47:26;100423.36;;;7.37;60.56
25510;BME280;13413;52.336;21.200;2023-02-22T02:50:24;100426.16;;;7.38;60.60
25510;BME280;13413;52.336;21.200;2023-02-22T02:53:24;100431.59;;;7.36;60.64
25510;BME280;13413;52.336;21.200;2023-02-22T02:56:17;100429.59;;;7.37;60.56
25510;BME280;13413;52.336;21.200;2023-02-22T03:02:26;100431.20;;;7.40;60.70
25510;BME280;13413;52.336;21.200;2023-02-22T03:05:46;100435.88;;;7.35;60.66
25510;BME280;13413;52.336;21.200;2023-02-22T03:08:50;100440.34;;;7.33;60.66
25510;BME280;13413;52.336;21.200;2023-02-22T03:11:55;100440.58;;;7.34;60.58
25510;BME280;13413;52.336;21.200;2023-02-22T03:15:02;100443.20;;;7.35;60.69
25510;BME280;13413;52.336;21.200;2023-02-22T03:18:04;100445.81;;;7.36;60.59
25510;BME280;13413;52.336;21.200;2023-02-22T03:21:05;100449.63;;;7.32;60.53
25510;BME280;13413;52.336;21.200;2023-02-22T03:24:11;100450.77;;;7.24;60.62
25510;BME280;13413;52.336;21.200;2023-02-22T03:27:11;100451.75;;;7.18;60.59
25510;BME280;13413;52.336;21.200;2023-02-22T03:30:11;100458.80;;;7.10;60.58
25510;BME280;13413;52.336;21.200;2023-02-22T03:33:12;100463.06;;;7.12;60.73
25510;BME280;13413;52.336;21.200;2023-02-22T03:36:13;100468.28;;;7.12;60.37
25510;BME280;13413;52.336;21.200;2023-02-22T03:39:10;100470.09;;;7.08;60.14
25510;BME280;13413;52.336;21.200;2023-02-22T03:42:09;100477.61;;;7.09;60.17
25510;BME280;13413;52.336;21.200;2023-02-22T03:45:09;100482.48;;;7.04;59.58
25510;BME280;13413;52.336;21.200;2023-02-22T03:48:10;100483.38;;;6.98;59.41
25510;BME280;13413;52.336;21.200;2023-02-22T03:51:07;100491.49;;;6.92;59.38
25510;BME280;13413;52.336;21.200;2023-02-22T03:54:01;100491.70;;;6.94;59.42
25510;BME280;13413;52.336;21.200;2023-02-22T03:56:57;100490.52;;;6.95;59.38
25510;BME280;13413;52.336;21.200;2023-02-22T03:59:53;100494.27;;;6.96;59.29
25510;BME280;13413;52.336;21.200;2023-02-22T04:02:47;100494.80;;;6.94;59.26
25510;BME280;13413;52.336;21.200;2023-02-22T04:05:42;100499.43;;;6.99;59.52
25510;BME280;13413;52.336;21.200;2023-02-22T04:08:36;100497.41;;;7.00;59.36
25510;BME280;13413;52.336;21.200;2023-02-22T04:11:32;100502.25;;;7.03;59.25
25510;BME280;13413;52.336;21.200;2023-02-22T04:14:26;100507.57;;;7.04;59.28
25510;BME280;13413;52.336;21.200;2023-02-22T04:17:20;100509.13;;;7.08;59.25
25510;BME280;13413;52.336;21.200;2023-02-22T04:20:14;100506.02;;;7.08;59.10
25510;BME280;13413;52.336;21.200;2023-02-22T04:23:09;100511.50;;;7.06;58.91
25510;BME280;13413;52.336;21.200;2023-02-22T04:26:03;100512.89;;;7.02;58.90
25510;BME280;13413;52.336;21.200;2023-02-22T04:28:57;100514.23;;;7.01;58.78
25510;BME280;13413;52.336;21.200;2023-02-22T04:31:51;100516.34;;;6.99;58.97
25510;BME280;13413;52.336;21.200;2023-02-22T04:34:45;100517.09;;;7.01;58.95
25510;BME280;13413;52.336;21.200;2023-02-22T04:37:39;100518.96;;;7.03;59.02
25510;BME280;13413;52.336;21.200;2023-02-22T04:43:27;100524.63;;;7.06;58.85
25510;BME280;13413;52.336;21.200;2023-02-22T04:46:21;100528.51;;;7.04;58.76
25510;BME280;13413;52.336;21.200;2023-02-22T04:49:16;100526.61;;;7.00;58.62
25510;BME280;13413;52.336;21.200;2023-02-22T04:52:09;100528.40;;;6.98;58.46
25510;BME280;13413;52.336;21.200;2023-02-22T04:55:04;100530.48;;;6.93;58.43
25510;BME280;13413;52.336;21.200;2023-02-22T04:57:58;100531.54;;;6.87;58.30
25510;BME280;13413;52.336;21.200;2023-02-22T05:00:52;100531.18;;;6.82;58.15
25510;BME280;13413;52.336;21.200;2023-02-22T05:03:46;100535.91;;;6.79;58.32
25510;BME280;13413;52.336;21.200;2023-02-22T05:06:42;100535.75;;;6.82;58.24
25510;BME280;13413;52.336;21.200;2023-02-22T05:09:36;100537.50;;;6.84;58.33
25510;BME280;13413;52.336;21.200;2023-02-22T05:12:30;100539.30;;;6.82;58.12
25510;BME280;13413;52.336;21.200;2023-02-22T05:24:03;100547.98;;;6.90;58.26
25510;BME280;13413;52.336;21.200;2023-02-22T05:26:56;100554.67;;;6.90;58.21
25510;BME280;13413;52.336;21.200;2023-02-22T05:29:51;100555.05;;;6.93;58.28
25510;BME280;13413;52.336;21.200;2023-02-22T05:32:44;100559.17;;;6.96;58.14
25510;BME280;13413;52.336;21.200;2023-02-22T05:35:38;100565.16;;;6.96;58.01
25510;BME280;13413;52.336;21.200;2023-02-22T05:38:32;100570.75;;;6.94;58.00
25510;BME280;13413;52.336;21.200;2023-02-22T05:41:26;100575.33;;;6.93;57.93
25510;BME280;13413;52.336;21.200;2023-02-22T05:44:20;100578.19;;;6.94;58.09
25510;BME280;13413;52.336;21.200;2023-02-22T05:47:14;100581.56;;;6.97;58.06
25510;BME280;13413;52.336;21.200;2023-02-22T05:50:09;100579.94;;;6.94;57.88
25510;BME280;13413;52.336;21.200;2023-02-22T05:53:03;100584.71;;;6.90;57.78
25510;BME280;13413;52.336;21.200;2023-02-22T05:55:57;100585.70;;;6.85;57.84
25510;BME280;13413;52.336;21.200;2023-02-22T05:58:52;100587.38;;;6.88;57.86
25510;BME280;13413;52.336;21.200;2023-02-22T06:01:46;100592.48;;;6.84;57.97
25510;BME280;13413;52.336;21.200;2023-02-22T06:04:40;100593.29;;;6.83;57.75
25510;BME280;13413;52.336;21.200;2023-02-22T06:07:36;100598.45;;;6.75;57.64
25510;BME280;13413;52.336;21.200;2023-02-22T06:10:31;100600.68;;;6.67;57.39
25510;BME280;13413;52.336;21.200;2023-02-22T06:13:25;100603.42;;;6.62;57.41
25510;BME280;13413;52.336;21.200;2023-02-22T06:16:20;100608.79;;;6.59;57.56
25510;BME280;13413;52.336;21.200;2023-02-22T06:19:14;100612.27;;;6.58;57.33
25510;BME280;13413;52.336;21.200;2023-02-22T06:22:13;100616.86;;;6.56;57.44
25510;BME280;13413;52.336;21.200;2023-02-22T06:25:12;100626.30;;;6.56;57.18
25510;BME280;13413;52.336;21.200;2023-02-22T06:28:06;100627.66;;;6.53;57.13
25510;BME280;13413;52.336;21.200;2023-02-22T06:31:00;100631.49;;;6.51;57.19
25510;BME280;13413;52.336;21.200;2023-02-22T06:34:08;100636.63;;;6.50;57.04
25510;BME280;13413;52.336;21.200;2023-02-22T06:37:01;100639.26;;;6.55;57.27
25510;BME280;13413;52.336;21.200;2023-02-22T06:40:09;100645.68;;;6.57;56.96
25510;BME280;13413;52.336;21.200;2023-02-22T06:43:03;100647.59;;;6.52;56.77
25510;BME280;13413;52.336;21.200;2023-02-22T06:45:57;100646.36;;;6.50;56.70
25510;BME280;13413;52.336;21.200;2023-02-22T06:48:51;100645.75;;;6.51;56.75
25510;BME280;13413;52.336;21.200;2023-02-22T06:51:45;100646.41;;;6.55;56.67
25510;BME280;13413;52.336;21.200;2023-02-22T06:54:40;100650.02;;;6.62;56.86
25510;BME280;13413;52.336;21.200;2023-02-22T06:57:34;100654.83;;;6.70;56.82
25510;BME280;13413;52.336;21.200;2023-02-22T07:00:30;100654.92;;;6.75;56.58
25510;BME280;13413;52.336;21.200;2023-02-22T07:03:24;100660.71;;;6.77;56.19
25510;BME280;13413;52.336;21.200;2023-02-22T07:06:18;100666.98;;;6.77;56.26
25510;BME280;13413;52.336;21.200;2023-02-22T07:09:12;100670.70;;;6.79;56.27
25510;BME280;13413;52.336;21.200;2023-02-22T07:12:07;100673.58;;;6.82;55.99
25510;BME280;13413;52.336;21.200;2023-02-22T07:17:54;100680.44;;;6.78;55.58
25510;BME280;13413;52.336;21.200;2023-02-22T07:20:49;100679.40;;;6.76;55.69
25510;BME280;13413;52.336;21.200;2023-02-22T07:23:45;100679.08;;;6.77;55.40
25510;BME280;13413;52.336;21.200;2023-02-22T07:26:43;100680.80;;;6.74;55.29
25510;BME280;13413;52.336;21.200;2023-02-22T07:29:36;100685.72;;;6.76;54.89
25510;BME280;13413;52.336;21.200;2023-02-22T07:32:30;100684.06;;;6.75;55.23
25510;BME280;13413;52.336;21.200;2023-02-22T07:35:23;100684.23;;;6.79;55.24
25510;BME280;13413;52.336;21.200;2023-02-22T07:47:31;100675.14;;;6.76;54.76
25510;BME280;13413;52.336;21.200;2023-02-22T07:50:25;100680.66;;;6.78;54.71
25510;BME280;13413;52.336;21.200;2023-02-22T07:53:20;100681.49;;;6.80;54.73
25510;BME280;13413;52.336;21.200;2023-02-22T07:56:13;100681.70;;;6.83;54.93
25510;BME280;13413;52.336;21.200;2023-02-22T07:59:06;100690.44;;;6.89;54.76
25510;BME280;13413;52.336;21.200;2023-02-22T08:01:58;100683.27;;;6.93;54.53
25510;BME280;13413;52.336;21.200;2023-02-22T08:04:50;100682.66;;;6.92;54.21
25510;BME280;13413;52.336;21.200;2023-02-22T08:07:42;100691.28;;;6.91;54.48
25510;BME280;13413;52.336;21.200;2023-02-22T08:10:35;100687.05;;;6.95;54.70
25510;BME280;13413;52.336;21.200;2023-02-22T08:13:28;100690.55;;;7.05;54.94
25510;BME280;13413;52.336;21.200;2023-02-22T08:16:21;100694.84;;;7.14;54.50
25510;BME280;13413;52.336;21.200;2023-02-22T08:19:13;100694.79;;;7.19;54.60
25510;BME280;13413;52.336;21.200;2023-02-22T08:22:06;100693.66;;;7.26;54.32
25510;BME280;13413;52.336;21.200;2023-02-22T08:24:59;100702.45;;;7.25;53.98
25510;BME280;13413;52.336;21.200;2023-02-22T08:27:51;100702.35;;;7.23;54.00
25510;BME280;13413;52.336;21.200;2023-02-22T08:30:44;100704.23;;;7.25;54.08
25510;BME280;13413;52.336;21.200;2023-02-22T08:33:37;100705.08;;;7.30;53.95
25510;BME280;13413;52.336;21.200;2023-02-22T08:36:28;100705.55;;;7.28;53.49
25510;BME280;13413;52.336;21.200;2023-02-22T08:39:21;100707.23;;;7.29;53.50
25510;BME280;13413;52.336;21.200;2023-02-22T08:42:13;100709.52;;;7.31;53.55
25510;BME280;13413;52.336;21.200;2023-02-22T08:45:07;100711.29;;;7.34;53.14
25510;BME280;13413;52.336;21.200;2023-02-22T08:48:00;100715.35;;;7.38;53.12
25510;BME280;13413;52.336;21.200;2023-02-22T08:50:53;100715.00;;;7.41;52.83
25510;BME280;13413;52.336;21.200;2023-02-22T08:53:46;100711.13;;;7.38;52.46
25510;BME280;13413;52.336;21.200;2023-02-22T08:56:39;100718.42;;;7.39;52.69
25510;BME280;13413;52.336;21.200;2023-02-22T08:59:32;100725.59;;;7.37;52.40
25510;BME280;13413;52.336;21.200;2023-02-22T09:02:24;100726.05;;;7.31;52.20
25510;BME280;13413;52.336;21.200;2023-02-22T09:05:17;100727.58;;;7.30;52.38
25510;BME280;13413;52.336;21.200;2023-02-22T09:08:10;100735.10;;;7.27;52.52
25510;BME280;13413;52.336;21.200;2023-02-22T09:11:03;100733.97;;;7.29;52.37
25510;BME280;13413;52.336;21.200;2023-02-22T09:13:56;100738.33;;;7.27;52.32
25510;BME280;13413;52.336;21.200;2023-02-22T09:16:47;100738.98;;;7.26;52.10
25510;BME280;13413;52.336;21.200;2023-02-22T09:19:39;100736.79;;;7.25;52.41
25510;BME280;13413;52.336;21.200;2023-02-22T09:22:32;100741.67;;;7.24;52.24
25510;BME280;13413;52.336;21.200;2023-02-22T09:25:28;100743.01;;;7.25;52.42
25510;BME280;13413;52.336;21.200;2023-02-22T09:28:21;100747.38;;;7.23;52.19
25510;BME280;13413;52.336;21.200;2023-02-22T09:31:13;100745.30;;;7.21;52.34
25510;BME280;13413;52.336;21.200;2023-02-22T09:37:11;100756.25;;;7.06;52.30
25510;BME280;13413;52.336;21.200;2023-02-22T09:40:08;100760.27;;;6.95;52.36
25510;BME280;13413;52.336;21.200;2023-02-22T09:43:19;100765.19;;;6.87;52.09
25510;BME280;13413;52.336;21.200;2023-02-22T09:46:24;100771.09;;;6.73;52.17
25510;BME280;13413;52.336;21.200;2023-02-22T09:49:22;100775.32;;;6.69;52.36
25510;BME280;13413;52.336;21.200;2023-02-22T09:52:23;100772.75;;;6.70;52.33
25510;BME280;13413;52.336;21.200;2023-02-22T09:55:25;100773.95;;;6.65;52.31
25510;BME280;13413;52.336;21.200;2023-02-22T09:58:25;100776.20;;;6.56;52.05
25510;BME280;13413;52.336;21.200;2023-02-22T10:01:27;100781.67;;;6.51;52.20
25510;BME280;13413;52.336;21.200;2023-02-22T10:04:27;100781.84;;;6.44;52.12
25510;BME280;13413;52.336;21.200;2023-02-22T10:07:29;100788.61;;;6.45;52.42
25510;BME280;13413;52.336;21.200;2023-02-22T10:10:28;100793.18;;;6.44;52.19
25510;BME280;13413;52.336;21.200;2023-02-22T10:16:28;100799.15;;;6.41;52.07
25510;BME280;13413;52.336;21.200;2023-02-22T10:19:33;100800.64;;;6.38;51.98
25510;BME280;13413;52.336;21.200;2023-02-22T10:22:38;100803.58;;;6.38;51.98
25510;BME280;13413;52.336;21.200;2023-02-22T10:25:37;100805.16;;;6.36;51.34
25510;BME280;13413;52.336;21.200;2023-02-22T10:31:31;100805.95;;;6.30;51.34
25510;BME280;13413;52.336;21.200;2023-02-22T10:34:27;100808.49;;;6.27;51.17
25510;BME280;13413;52.336;21.200;2023-02-22T10:37:29;100808.30;;;6.25;50.91
25510;BME280;13413;52.336;21.200;2023-02-22T10:40:24;100807.16;;;6.22;50.58
25510;BME280;13413;52.336;21.200;2023-02-22T10:43:19;100810.71;;;6.20;50.74
25510;BME280;13413;52.336;21.200;2023-02-22T10:46:15;100804.95;;;6.23;50.75
25510;BME280;13413;52.336;21.200;2023-02-22T10:49:11;100805.53;;;6.27;50.77
25510;BME280;13413;52.336;21.200;2023-02-22T10:52:16;100807.62;;;6.29;50.80
25510;BME280;13413;52.336;21.200;2023-02-22T10:55:14;100808.45;;;6.35;50.64
25510;BME280;13413;52.336;21.200;2023-02-22T10:58:09;100805.02;;;6.38;50.45
25510;BME280;13413;52.336;21.200;2023-02-22T11:01:18;100805.69;;;6.36;50.33
25510;BME280;13413;52.336;21.200;2023-02-22T11:04:14;100807.60;;;6.41;50.22
25510;BME280;13413;52.336;21.200;2023-02-22T11:07:15;100806.14;;;6.39;50.05
25510;BME280;13413;52.336;21.200;2023-02-22T11:10:11;100803.58;;;6.38;49.91
25510;BME280;13413;52.336;21.200;2023-02-22T11:13:17;100801.85;;;6.34;49.97
25510;BME280;13413;52.336;21.200;2023-02-22T11:16:26;100798.16;;;6.38;49.85
25510;BME280;13413;52.336;21.200;2023-02-22T11:19:23;100796.42;;;6.36;49.75
25510;BME280;13413;52.336;21.200;2023-02-22T11:22:24;100799.41;;;6.30;49.52
25510;BME280;13413;52.336;21.200;2023-02-22T11:25:23;100796.45;;;6.38;50.00
25510;BME280;13413;52.336;21.200;2023-02-22T11:28:25;100800.84;;;6.36;49.12
25510;BME280;13413;52.336;21.200;2023-02-22T11:31:22;100806.45;;;6.34;49.40
25510;BME280;13413;52.336;21.200;2023-02-22T11:34:35;100806.56;;;6.32;49.32
25510;BME280;13413;52.336;21.200;2023-02-22T11:37:33;100805.52;;;6.29;48.46
25510;BME280;13413;52.336;21.200;2023-02-22T11:40:28;100810.48;;;6.30;49.26
25510;BME280;13413;52.336;21.200;2023-02-22T11:43:21;100807.33;;;6.41;49.71
25510;BME280;13413;52.336;21.200;2023-02-22T11:46:17;100810.03;;;6.59;49.48
25510;BME280;13413;52.336;21.200;2023-02-22T11:49:11;100810.05;;;6.70;49.38
25510;BME280;13413;52.336;21.200;2023-02-22T11:57:49;100805.17;;;6.96;49.01
25510;BME280;13413;52.336;21.200;2023-02-22T12:04:21;100812.79;;;7.05;48.01
25510;BME280;13413;52.336;21.200;2023-02-22T12:07:26;100814.23;;;7.02;48.36
25510;BME280;13413;52.336;21.200;2023-02-22T12:10:37;100818.47;;;7.06;48.37
25510;BME280;13413;52.336;21.200;2023-02-22T12:13:43;100825.44;;;7.09;48.12
25510;BME280;13413;52.336;21.200;2023-02-22T12:16:51;100821.81;;;6.98;47.61
25510;BME280;13413;52.336;21.200;2023-02-22T12:19:54;100823.28;;;6.94;48.29
25510;BME280;13413;52.336;21.200;2023-02-22T12:26:02;100818.09;;;6.93;48.02
25510;BME280;13413;52.336;21.200;2023-02-22T12:29:06;100819.50;;;6.93;47.94
25510;BME280;13413;52.336;21.200;2023-02-22T12:32:06;100819.79;;;6.91;47.86
25510;BME280;13413;52.336;21.200;2023-02-22T12:35:08;100820.80;;;6.88;47.83
25510;BME280;13413;52.336;21.200;2023-02-22T12:38:08;100816.92;;;6.90;48.21
25510;BME280;13413;52.336;21.200;2023-02-22T12:41:10;100815.77;;;6.97;47.78
25510;BME280;13413;52.336;21.200;2023-02-22T12:44:09;100819.42;;;7.01;48.00
25510;BME280;13413;52.336;21.200;2023-02-22T12:47:15;100823.58;;;7.04;47.58
25510;BME280;13413;52.336;21.200;2023-02-22T12:50:15;100825.14;;;7.04;47.69
25510;BME280;13413;52.336;21.200;2023-02-22T12:53:17;100825.31;;;7.08;48.04
25510;BME280;13413;52.336;21.200;2023-02-22T12:56:20;100829.84;;;7.12;47.51
25510;BME280;13413;52.336;21.200;2023-02-22T12:59:21;100832.11;;;7.09;47.55
25510;BME280;13413;52.336;21.200;2023-02-22T13:02:21;100834.80;;;7.10;47.75
25510;BME280;13413;52.336;21.200;2023-02-22T13:05:20;100836.25;;;7.08;47.29
25510;BME280;13413;52.336;21.200;2023-02-22T13:08:22;100841.52;;;6.94;47.17
25510;BME280;13413;52.336;21.200;2023-02-22T13:11:24;100847.68;;;6.85;47.45
25510;BME280;13413;52.336;21.200;2023-02-22T13:14:34;100850.34;;;6.88;47.58
25510;BME280;13413;52.336;21.200;2023-02-22T13:17:35;100851.40;;;6.86;47.20
25510;BME280;13413;52.336;21.200;2023-02-22T13:20:35;100857.70;;;6.75;46.85
25510;BME280;13413;52.336;21.200;2023-02-22T13:23:40;100864.95;;;6.67;47.37
25510;BME280;13413;52.336;21.200;2023-02-22T13:26:41;100869.56;;;6.70;47.61
25510;BME280;13413;52.336;21.200;2023-02-22T13:29:40;100870.84;;;6.68;46.99
25510;BME280;13413;52.336;21.200;2023-02-22T13:32:48;100868.98;;;6.58;47.09
25510;BME280;13413;52.336;21.200;2023-02-22T13:35:56;100866.23;;;6.57;47.34
25510;BME280;13413;52.336;21.200;2023-02-22T13:39:33;100865.58;;;6.60;47.13
25510;BME280;13413;52.336;21.200;2023-02-22T13:42:46;100864.59;;;6.57;46.87
25510;BME280;13413;52.336;21.200;2023-02-22T13:46:06;100862.26;;;6.54;46.99
25510;BME280;13413;52.336;21.200;2023-02-22T13:49:18;100861.07;;;6.56;46.82
25510;BME280;13413;52.336;21.200;2023-02-22T13:52:16;100868.20;;;6.56;47.27
25510;BME280;13413;52.336;21.200;2023-02-22T13:55:18;100866.67;;;6.56;46.77
25510;BME280;13413;52.336;21.200;2023-02-22T13:58:27;100868.93;;;6.46;46.55
25510;BME280;13413;52.336;21.200;2023-02-22T14:01:45;100867.87;;;6.38;46.74
25510;BME280;13413;52.336;21.200;2023-02-22T14:04:40;100869.61;;;6.37;46.85
25510;BME280;13413;52.336;21.200;2023-02-22T14:07:56;100870.02;;;6.38;46.83
25510;BME280;13413;52.336;21.200;2023-02-22T14:16:23;100878.11;;;6.42;46.75
25510;BME280;13413;52.336;21.200;2023-02-22T14:19:18;100881.69;;;6.39;46.57
25510;BME280;13413;52.336;21.200;2023-02-22T14:22:10;100885.38;;;6.39;46.81
25510;BME280;13413;52.336;21.200;2023-02-22T14:25:04;100883.94;;;6.45;46.93
25510;BME280;13413;52.336;21.200;2023-02-22T14:27:58;100886.11;;;6.41;46.80
25510;BME280;13413;52.336;21.200;2023-02-22T14:31:02;100888.29;;;6.40;47.04
25510;BME280;13413;52.336;21.200;2023-02-22T14:34:05;100888.02;;;6.43;47.10
25510;BME280;13413;52.336;21.200;2023-02-22T14:37:02;100886.98;;;6.43;46.89
25510;BME280;13413;52.336;21.200;2023-02-22T14:40:01;100889.83;;;6.38;46.91
25510;BME280;13413;52.336;21.200;2023-02-22T14:43:02;100892.03;;;6.33;46.79
25510;BME280;13413;52.336;21.200;2023-02-22T14:45:57;100891.27;;;6.24;46.69
25510;BME280;13413;52.336;21.200;2023-02-22T14:48:59;100890.10;;;6.18;46.96
25510;BME280;13413;52.336;21.200;2023-02-22T14:51:57;100890.05;;;6.14;46.82
25510;BME280;13413;52.336;21.200;2023-02-22T14:55:03;100888.36;;;6.11;46.84
25510;BME280;13413;52.336;21.200;2023-02-22T14:58:04;100884.07;;;6.09;47.01
25510;BME280;13413;52.336;21.200;2023-02-22T15:01:00;100887.25;;;6.14;47.14
25510;BME280;13413;52.336;21.200;2023-02-22T15:04:22;100889.45;;;6.19;47.30
25510;BME280;13413;52.336;21.200;2023-02-22T15:10:21;100902.85;;;6.17;47.06
25510;BME280;13413;52.336;21.200;2023-02-22T15:13:19;100893.09;;;6.17;46.93
25510;BME280;13413;52.336;21.200;2023-02-22T15:16:14;100891.00;;;6.16;46.96
25510;BME280;13413;52.336;21.200;2023-02-22T15:19:09;100894.93;;;6.18;47.29
25510;BME280;13413;52.336;21.200;2023-02-22T15:22:03;100894.23;;;6.19;46.55
25510;BME280;13413;52.336;21.200;2023-02-22T15:24:57;100890.63;;;6.18;47.06
25510;BME280;13413;52.336;21.200;2023-02-22T15:27:52;100894.36;;;6.19;47.04
25510;BME280;13413;52.336;21.200;2023-02-22T15:30:46;100893.85;;;6.23;47.16
25510;BME280;13413;52.336;21.200;2023-02-22T15:33:40;100896.56;;;6.26;46.98
25510;BME280;13413;52.336;21.200;2023-02-22T15:36:34;100899.33;;;6.29;47.43
25510;BME280;13413;52.336;21.200;2023-02-22T15:42:24;100894.95;;;6.30;46.96
25510;BME280;13413;52.336;21.200;2023-02-22T15:45:21;100897.17;;;6.25;46.23
25510;BME280;13413;52.336;21.200;2023-02-22T15:48:15;100898.06;;;6.17;46.75
25510;BME280;13413;52.336;21.200;2023-02-22T15:51:11;100901.31;;;6.18;46.98
25510;BME280;13413;52.336;21.200;2023-02-22T15:54:07;100904.09;;;6.20;47.31
25510;BME280;13413;52.336;21.200;2023-02-22T15:57:01;100908.38;;;6.25;47.15
25510;BME280;13413;52.336;21.200;2023-02-22T15:59:56;100912.62;;;6.25;47.06
25510;BME280;13413;52.336;21.200;2023-02-22T16:02:51;100909.56;;;6.24;47.00
25510;BME280;13413;52.336;21.200;2023-02-22T16:05:47;100913.26;;;6.24;46.91
25510;BME280;13413;52.336;21.200;2023-02-22T16:08:46;100917.46;;;6.22;46.92
25510;BME280;13413;52.336;21.200;2023-02-22T16:11:42;100921.25;;;6.19;46.80
25510;BME280;13413;52.336;21.200;2023-02-22T16:14:42;100921.71;;;6.18;47.12
25510;BME280;13413;52.336;21.200;2023-02-22T16:20:58;100924.42;;;6.17;47.11
25510;BME280;13413;52.336;21.200;2023-02-22T16:23:51;100929.59;;;6.18;47.23
25510;BME280;13413;52.336;21.200;2023-02-22T16:27:02;100929.28;;;6.21;47.21
25510;BME280;13413;52.336;21.200;2023-02-22T16:38:02;100938.21;;;6.30;47.31
25510;BME280;13413;52.336;21.200;2023-02-22T16:40:57;100939.70;;;6.21;47.25
25510;BME280;13413;52.336;21.200;2023-02-22T16:43:52;100941.65;;;6.23;47.46
25510;BME280;13413;52.336;21.200;2023-02-22T16:46:46;100946.59;;;6.26;47.32